createdAt,value
2023-02-04T00:00:37.292Z,98.60
2023-02-04T00:03:06.508Z,98.60
2023-02-04T00:05:34.772Z,98.70
2023-02-04T00:08:04.649Z,98.60
2023-02-04T00:10:34.367Z,98.80
2023-02-04T00:13:02.683Z,98.70
2023-02-04T00:15:31.109Z,98.90
2023-02-04T00:17:59.404Z,98.90
2023-02-04T00:20:27.862Z,99.10
2023-02-04T00:22:57.201Z,99.40
2023-02-04T00:25:25.527Z,99.30
2023-02-04T00:27:55.164Z,99.50
2023-02-04T00:30:23.469Z,99.50
2023-02-04T00:32:54.907Z,99.50
2023-02-04T00:35:23.338Z,99.70
2023-02-04T00:37:53.602Z,99.50
2023-02-04T00:40:21.909Z,99.50
2023-02-04T00:42:50.117Z,99.70
2023-02-04T00:45:19.854Z,99.70
2023-02-04T00:47:48.182Z,99.70
2023-02-04T00:50:16.716Z,99.80
2023-02-04T00:52:45.458Z,99.80
2023-02-04T00:55:16.952Z,99.80
2023-02-04T00:57:47.042Z,99.80
2023-02-04T01:00:17.122Z,99.80
2023-02-04T01:02:47.162Z,99.70
2023-02-04T01:05:15.464Z,99.70
2023-02-04T01:07:43.858Z,99.90
2023-02-04T01:10:12.954Z,99.90
2023-02-04T01:12:41.263Z,99.90
2023-02-04T01:15:10.611Z,99.90
2023-02-04T01:17:39.019Z,99.90
2023-02-04T01:20:09.511Z,99.90
2023-02-04T01:22:37.767Z,99.90
2023-02-04T01:25:06.859Z,99.90
2023-02-04T01:27:44.823Z,99.90
2023-02-04T01:30:15.164Z,99.90
2023-02-04T01:32:43.530Z,99.90
2023-02-04T01:35:13.215Z,99.90
2023-02-04T01:37:41.509Z,99.90
2023-02-04T01:40:12.591Z,99.90
2023-02-04T01:42:41.239Z,99.90
2023-02-04T01:45:10.869Z,99.90
2023-02-04T01:47:39.956Z,99.90
2023-02-04T01:50:11.548Z,99.90
2023-02-04T01:52:42.319Z,99.90
2023-02-04T01:55:16.213Z,99.90
2023-02-04T01:57:45.717Z,99.90
2023-02-04T02:00:18.020Z,99.90
2023-02-04T02:02:51.515Z,99.90
2023-02-04T02:05:24.211Z,99.90
2023-02-04T02:07:56.068Z,99.90
2023-02-04T02:10:25.027Z,99.90
2023-02-04T02:12:54.653Z,99.90
2023-02-04T02:15:23.745Z,99.90
2023-02-04T02:17:52.676Z,99.90
2023-02-04T02:20:24.009Z,99.90
2023-02-04T02:23:02.615Z,99.90
2023-02-04T02:25:33.786Z,99.90
2023-02-04T02:28:04.303Z,99.90
2023-02-04T02:30:33.113Z,99.90
2023-02-04T02:33:01.591Z,99.90
2023-02-04T02:35:29.967Z,99.90
2023-02-04T02:37:58.626Z,99.90
2023-02-04T02:40:27.172Z,99.90
2023-02-04T02:42:57.099Z,99.90
2023-02-04T02:45:27.061Z,99.90
2023-02-04T02:47:57.010Z,99.90
2023-02-04T02:50:27.463Z,99.90
2023-02-04T02:52:56.628Z,99.90
2023-02-04T02:55:26.770Z,99.90
2023-02-04T02:57:57.725Z,99.90
2023-02-04T03:00:30.016Z,99.90
2023-02-04T03:03:03.113Z,99.90
2023-02-04T03:05:35.025Z,99.90
2023-02-04T03:08:04.898Z,99.90
2023-02-04T03:10:33.462Z,99.90
2023-02-04T03:13:03.632Z,99.90
2023-02-04T03:15:32.862Z,99.90
2023-02-04T03:18:01.757Z,99.90
2023-02-04T03:20:32.750Z,99.90
2023-02-04T03:23:01.164Z,99.90
2023-02-04T03:25:29.734Z,99.90
2023-02-04T03:28:00.597Z,99.90
2023-02-04T03:30:30.769Z,99.70
2023-02-04T03:32:59.509Z,99.70
2023-02-04T03:35:27.821Z,99.70
2023-02-04T03:37:57.581Z,99.60
2023-02-04T03:40:25.856Z,99.70
2023-02-04T03:42:54.283Z,99.60
2023-02-04T03:45:22.578Z,99.60
2023-02-04T03:47:52.160Z,99.60
2023-02-04T03:50:20.388Z,99.60
2023-02-04T03:52:49.011Z,99.60
2023-02-04T03:55:17.403Z,99.60
2023-02-04T03:57:45.570Z,99.50
2023-02-04T04:00:15.008Z,99.40
2023-02-04T04:02:43.332Z,99.40
2023-02-04T04:05:13.320Z,99.30
2023-02-04T04:07:41.521Z,99.30
2023-02-04T04:10:10.211Z,99.20
2023-02-04T04:12:38.467Z,99.00
2023-02-04T04:15:07.365Z,98.80
2023-02-04T04:17:35.651Z,98.80
2023-02-04T04:20:04.068Z,98.70
2023-02-04T04:22:33.864Z,98.70
2023-02-04T04:25:02.049Z,98.70
2023-02-04T04:27:30.331Z,98.60
2023-02-04T04:29:58.628Z,98.60
2023-02-04T04:32:26.871Z,98.50
2023-02-04T04:34:55.255Z,98.30
2023-02-04T04:37:23.494Z,98.30
2023-02-04T04:39:53.129Z,98.10
2023-02-04T04:42:21.505Z,98.00
2023-02-04T04:44:49.759Z,97.90
2023-02-04T04:47:17.942Z,97.80
2023-02-04T04:49:46.132Z,97.70
2023-02-04T04:52:14.345Z,97.60
2023-02-04T04:54:42.489Z,97.50
2023-02-04T04:57:12.121Z,97.40
2023-02-04T04:59:40.372Z,97.30
2023-02-04T05:02:08.687Z,97.30
2023-02-04T05:04:37.006Z,97.20
2023-02-04T05:07:05.481Z,97.10
2023-02-04T05:09:33.735Z,97.00
2023-02-04T05:12:02.773Z,96.90
2023-02-04T05:14:32.505Z,96.90
2023-02-04T05:17:00.858Z,96.70
2023-02-04T05:19:29.130Z,96.80
2023-02-04T05:21:57.696Z,96.60
2023-02-04T05:24:26.251Z,96.60
2023-02-04T05:26:54.493Z,96.50
2023-02-04T05:29:22.732Z,96.50
2023-02-04T05:31:52.428Z,96.50
2023-02-04T05:34:20.844Z,96.40
2023-02-04T05:36:49.034Z,96.40
2023-02-04T05:39:17.283Z,96.30
2023-02-04T05:41:45.531Z,96.20
2023-02-04T05:44:13.738Z,96.20
2023-02-04T05:46:41.936Z,96.10
2023-02-04T05:49:13.002Z,96.00
2023-02-04T05:51:41.303Z,95.90
2023-02-04T05:54:09.529Z,95.90
2023-02-04T05:56:37.837Z,95.90
2023-02-04T05:59:06.067Z,95.80
2023-02-04T06:01:34.274Z,95.80
2023-02-04T06:04:02.547Z,95.80
2023-02-04T06:06:32.309Z,95.80
2023-02-04T06:09:00.836Z,95.80
2023-02-04T06:11:29.078Z,96.10
2023-02-04T06:13:57.328Z,95.80
2023-02-04T06:16:25.870Z,95.90
2023-02-04T06:18:55.013Z,95.90
2023-02-04T06:21:23.209Z,96.00
2023-02-04T06:23:52.850Z,96.10
2023-02-04T06:26:21.066Z,96.20
2023-02-04T06:28:49.420Z,96.20
2023-02-04T06:31:17.709Z,96.20
2023-02-04T06:33:46.410Z,96.20
2023-02-04T06:36:14.776Z,96.20
2023-02-04T06:38:43.025Z,96.30
2023-02-04T06:41:12.865Z,96.30
2023-02-04T06:43:41.103Z,96.70
2023-02-04T06:46:09.354Z,96.40
2023-02-04T06:48:37.601Z,96.50
2023-02-04T06:51:06.124Z,96.40
2023-02-04T06:53:34.466Z,96.50
2023-02-04T06:56:02.764Z,96.50
2023-02-04T06:58:32.416Z,96.50
2023-02-04T07:01:00.731Z,96.30
2023-02-04T07:03:29.216Z,96.30
2023-02-04T07:05:57.389Z,96.20
2023-02-04T07:08:25.651Z,96.00
2023-02-04T07:10:54.007Z,96.00
2023-02-04T07:13:22.281Z,95.80
2023-02-04T07:15:52.962Z,95.80
2023-02-04T07:18:21.389Z,95.80
2023-02-04T07:20:49.626Z,95.70
2023-02-04T07:23:17.873Z,95.60
2023-02-04T07:25:46.269Z,95.60
2023-02-04T07:28:14.612Z,95.40
2023-02-04T07:30:43.011Z,95.40
2023-02-04T07:33:15.324Z,95.40
2023-02-04T07:35:44.400Z,95.30
2023-02-04T07:38:13.064Z,95.20
2023-02-04T07:40:41.333Z,95.10
2023-02-04T07:43:09.690Z,95.10
2023-02-04T07:45:39.726Z,95.00
2023-02-04T07:48:07.968Z,94.90
2023-02-04T07:50:37.856Z,94.90
2023-02-04T07:53:06.146Z,94.80
2023-02-04T07:55:34.413Z,94.80
2023-02-04T07:58:02.723Z,94.70
2023-02-04T08:00:31.323Z,94.60
2023-02-04T08:02:59.768Z,94.60
2023-02-04T08:05:28.023Z,94.50
2023-02-04T08:07:58.545Z,94.40
2023-02-04T08:10:26.850Z,94.40
2023-02-04T08:12:55.047Z,94.40
2023-02-04T08:15:23.274Z,94.70
2023-02-04T08:17:51.507Z,94.30
2023-02-04T08:20:19.969Z,94.40
2023-02-04T08:22:48.222Z,94.20
2023-02-04T08:25:18.060Z,94.10
2023-02-04T08:27:46.355Z,94.10
2023-02-04T08:30:17.336Z,94.10
2023-02-04T08:32:45.565Z,93.90
2023-02-04T08:35:14.064Z,94.00
2023-02-04T08:37:42.257Z,93.90
2023-02-04T08:40:11.738Z,93.90
2023-02-04T08:42:41.315Z,93.90
2023-02-04T08:45:10.385Z,93.80
2023-02-04T08:47:38.579Z,93.90
2023-02-04T08:50:07.330Z,93.80
2023-02-04T08:52:36.703Z,93.80
2023-02-04T08:55:05.358Z,93.90
2023-02-04T08:57:35.008Z,93.90
2023-02-04T09:00:05.122Z,93.80
2023-02-04T09:02:33.375Z,93.70
2023-02-04T09:05:01.632Z,93.80
2023-02-04T09:07:30.123Z,93.80
2023-02-04T09:09:58.452Z,93.80
2023-02-04T09:12:26.802Z,93.80
2023-02-04T09:14:57.742Z,93.80
2023-02-04T09:17:27.400Z,93.70
2023-02-04T09:19:55.682Z,93.70
2023-02-04T09:22:23.975Z,93.80
2023-02-04T09:24:52.209Z,93.80
2023-02-04T09:27:20.797Z,93.80
2023-02-04T09:29:49.217Z,93.80
2023-02-04T09:32:17.421Z,93.70
2023-02-04T09:34:47.046Z,93.70
2023-02-04T09:37:15.373Z,93.60
2023-02-04T09:39:43.615Z,93.50
2023-02-04T09:42:14.792Z,93.50
2023-02-04T09:44:45.393Z,93.50
2023-02-04T09:47:15.701Z,93.50
2023-02-04T09:49:47.928Z,93.40
2023-02-04T09:52:19.368Z,93.50
2023-02-04T09:54:47.915Z,93.40
2023-02-04T09:57:18.496Z,93.40
2023-02-04T09:59:47.588Z,93.40
2023-02-04T10:02:24.189Z,93.40
2023-02-04T10:04:58.543Z,93.50
2023-02-04T10:07:27.870Z,93.50
2023-02-04T10:09:56.792Z,93.60
2023-02-04T10:12:25.855Z,93.60
2023-02-04T10:14:54.099Z,93.50
2023-02-04T10:17:23.831Z,93.50
2023-02-04T10:19:53.764Z,93.50
2023-02-04T10:22:23.739Z,93.50
2023-02-04T10:24:52.088Z,93.50
2023-02-04T10:27:20.417Z,93.50
2023-02-04T10:29:57.629Z,93.40
2023-02-04T10:32:28.863Z,93.50
2023-02-04T10:35:03.463Z,93.40
2023-02-04T10:37:32.264Z,93.30
2023-02-04T10:40:00.639Z,93.30
2023-02-04T10:42:30.702Z,93.40
2023-02-04T10:44:59.381Z,93.60
2023-02-04T10:47:31.107Z,93.80
2023-02-04T10:50:04.723Z,94.20
2023-02-04T10:52:38.326Z,94.10
2023-02-04T10:55:08.457Z,94.40
2023-02-04T10:57:40.808Z,94.40
2023-02-04T11:00:18.975Z,94.40
2023-02-04T11:02:53.866Z,94.80
2023-02-04T11:05:26.303Z,94.50
2023-02-04T11:07:54.565Z,94.50
2023-02-04T11:10:26.153Z,94.50
2023-02-04T11:13:01.740Z,94.40
2023-02-04T11:15:42.505Z,94.50
2023-02-04T11:18:13.609Z,94.40
2023-02-04T11:20:43.521Z,94.40
2023-02-04T11:23:32.220Z,94.40
2023-02-04T11:26:14.535Z,94.50
2023-02-04T11:28:52.396Z,94.40
2023-02-04T11:31:43.672Z,94.40
2023-02-04T11:34:27.416Z,94.40
2023-02-04T11:37:13.330Z,94.30
2023-02-04T11:39:43.467Z,94.30
2023-02-04T11:42:20.298Z,94.30
2023-02-04T11:44:56.917Z,94.40
2023-02-04T11:47:27.091Z,94.20
2023-02-04T11:49:58.900Z,94.20
2023-02-04T11:52:29.927Z,94.20
2023-02-04T11:54:59.974Z,94.30
2023-02-04T11:57:28.681Z,94.20
2023-02-04T11:59:56.985Z,94.20
2023-02-04T12:02:27.207Z,94.00
2023-02-04T12:04:59.602Z,94.00
2023-02-04T12:07:31.050Z,93.60
2023-02-04T12:09:59.397Z,93.90
2023-02-04T12:12:29.763Z,94.00
2023-02-04T12:14:59.535Z,94.00
2023-02-04T12:17:27.780Z,93.90
2023-02-04T12:19:56.071Z,93.90
2023-02-04T12:22:24.286Z,93.90
2023-02-04T12:24:53.942Z,94.00
2023-02-04T12:27:23.001Z,94.00
2023-02-04T12:29:51.231Z,93.90
2023-02-04T12:32:19.490Z,94.00
2023-02-04T12:34:47.764Z,93.70
2023-02-04T12:37:15.965Z,93.50
2023-02-04T12:39:44.244Z,93.20
2023-02-04T12:42:13.806Z,93.00
2023-02-04T12:44:42.044Z,93.30
2023-02-04T12:47:10.308Z,93.50
2023-02-04T12:49:38.881Z,93.50
2023-02-04T12:52:07.193Z,93.70
2023-02-04T12:54:35.770Z,93.70
2023-02-04T12:57:04.132Z,93.80
2023-02-04T12:59:33.861Z,93.80
2023-02-04T13:02:02.252Z,93.80
2023-02-04T13:04:30.522Z,93.90
2023-02-04T13:06:58.860Z,94.00
2023-02-04T13:09:27.104Z,93.90
2023-02-04T13:11:55.462Z,93.70
2023-02-04T13:14:23.694Z,93.40
2023-02-04T13:16:53.389Z,93.10
2023-02-04T13:19:21.627Z,93.00
2023-02-04T13:21:49.986Z,93.00
2023-02-04T13:24:18.298Z,93.00
2023-02-04T13:26:46.660Z,93.00
2023-02-04T13:29:14.889Z,92.90
2023-02-04T13:31:43.408Z,92.80
2023-02-04T13:34:13.058Z,92.70
2023-02-04T13:36:41.391Z,92.60
2023-02-04T13:39:09.561Z,92.50
2023-02-04T13:41:37.832Z,92.30
2023-02-04T13:44:06.671Z,92.20
2023-02-04T13:46:35.524Z,92.20
2023-02-04T13:49:03.754Z,92.30
2023-02-04T13:51:33.373Z,92.30
2023-02-04T13:54:01.615Z,92.30
2023-02-04T13:56:30.793Z,92.20
2023-02-04T13:58:59.024Z,92.50
2023-02-04T14:01:28.336Z,92.80
2023-02-04T14:03:56.572Z,93.10
2023-02-04T14:06:33.159Z,93.20
2023-02-04T14:09:02.921Z,93.30
2023-02-04T14:11:31.354Z,93.30
2023-02-04T14:13:59.685Z,93.30
2023-02-04T14:16:27.984Z,93.40
2023-02-04T14:18:56.338Z,93.40
2023-02-04T14:21:24.682Z,93.40
2023-02-04T14:23:53.017Z,93.40
2023-02-04T14:26:22.633Z,93.40
2023-02-04T14:28:51.107Z,93.50
2023-02-04T14:31:19.903Z,93.50
2023-02-04T14:33:50.352Z,93.50
2023-02-04T14:36:18.811Z,93.60
2023-02-04T14:38:46.957Z,93.30
2023-02-04T14:41:17.331Z,93.30
2023-02-04T14:43:47.073Z,93.20
2023-02-04T14:46:15.366Z,93.20
2023-02-04T14:48:45.464Z,93.20
2023-02-04T14:51:13.968Z,93.30
2023-02-04T14:53:46.110Z,92.80
2023-02-04T14:56:17.257Z,92.40
2023-02-04T14:58:46.836Z,92.30
2023-02-04T15:01:15.047Z,92.30
2023-02-04T15:03:43.444Z,92.20
2023-02-04T15:06:11.653Z,91.90
2023-02-04T15:08:39.949Z,92.10
2023-02-04T15:11:08.217Z,92.10
2023-02-04T15:13:36.435Z,92.30
2023-02-04T15:16:06.469Z,92.60
2023-02-04T15:18:35.101Z,92.50
2023-02-04T15:21:03.422Z,92.40
2023-02-04T15:23:31.805Z,92.20
2023-02-04T15:26:00.088Z,92.20
2023-02-04T15:28:29.881Z,92.40
2023-02-04T15:30:58.537Z,92.60
2023-02-04T15:33:29.533Z,92.70
2023-02-04T15:35:57.896Z,92.80
2023-02-04T15:38:26.188Z,92.80
2023-02-04T15:40:54.466Z,92.70
2023-02-04T15:43:22.727Z,92.80
2023-02-04T15:45:51.000Z,92.80
2023-02-04T15:48:20.176Z,92.80
2023-02-04T15:50:49.820Z,92.80
2023-02-04T15:53:18.357Z,92.70
2023-02-04T15:55:46.896Z,92.70
2023-02-04T15:58:15.263Z,92.60
2023-02-04T16:00:44.054Z,92.30
2023-02-04T16:03:15.169Z,92.20
2023-02-04T16:05:43.615Z,92.00
2023-02-04T16:08:13.241Z,92.00
2023-02-04T16:10:41.498Z,91.90
2023-02-04T16:13:10.094Z,91.90
2023-02-04T16:15:38.495Z,91.90
2023-02-04T16:18:06.883Z,91.80
2023-02-04T16:20:35.223Z,91.90
2023-02-04T16:23:04.302Z,92.20
2023-02-04T16:25:34.206Z,92.50
2023-02-04T16:28:03.412Z,92.40
2023-02-04T16:30:31.825Z,92.20
2023-02-04T16:33:00.104Z,92.20
2023-02-04T16:35:28.412Z,92.20
2023-02-04T16:37:56.585Z,92.00
2023-02-04T16:40:24.868Z,91.90
2023-02-04T16:42:54.440Z,91.90
2023-02-04T16:45:24.220Z,91.90
2023-02-04T16:47:52.584Z,91.80
2023-02-04T16:50:22.062Z,91.80
2023-02-04T16:52:50.466Z,91.40
2023-02-04T16:55:18.632Z,91.10
2023-02-04T16:57:46.860Z,91.20
2023-02-04T17:00:17.330Z,91.20
2023-02-04T17:02:46.019Z,91.10
2023-02-04T17:05:14.652Z,91.10
2023-02-04T17:07:42.961Z,91.10
2023-02-04T17:10:11.627Z,91.20
2023-02-04T17:12:39.916Z,91.50
2023-02-04T17:15:09.109Z,91.70
2023-02-04T17:17:38.717Z,91.70
2023-02-04T17:20:07.366Z,92.00
2023-02-04T17:22:35.713Z,92.10
2023-02-04T17:25:03.977Z,92.60
2023-02-04T17:27:32.435Z,92.30
2023-02-04T17:30:00.849Z,92.40
2023-02-04T17:32:29.278Z,92.10
2023-02-04T17:34:59.000Z,92.00
2023-02-04T17:37:27.237Z,91.60
2023-02-04T17:39:55.478Z,91.50
2023-02-04T17:42:24.192Z,91.70
2023-02-04T17:44:52.428Z,91.90
2023-02-04T17:47:20.650Z,92.00
2023-02-04T17:49:49.000Z,92.00
2023-02-04T17:52:18.652Z,92.00
2023-02-04T17:54:46.886Z,92.10
2023-02-04T17:57:19.400Z,92.00
2023-02-04T17:59:48.260Z,92.00
2023-02-04T18:02:25.079Z,91.90
2023-02-04T18:04:55.445Z,91.90
2023-02-04T18:07:26.301Z,91.80
2023-02-04T18:10:02.568Z,91.80
2023-02-04T18:12:30.873Z,91.70
2023-02-04T18:15:00.238Z,92.10
2023-02-04T18:17:29.877Z,91.60
2023-02-04T18:20:02.697Z,91.70
2023-02-04T18:22:32.444Z,91.70
2023-02-04T18:25:00.769Z,91.80
2023-02-04T18:27:31.537Z,91.90
2023-02-04T18:30:01.728Z,91.90
2023-02-04T18:32:37.451Z,91.80
2023-02-04T18:35:35.598Z,91.90
2023-02-04T18:38:18.957Z,91.70
2023-02-04T18:40:48.336Z,91.70
2023-02-04T18:43:25.961Z,91.70
2023-02-04T18:45:54.779Z,91.70
2023-02-04T18:49:01.198Z,91.70
2023-02-04T18:51:32.866Z,91.70
2023-02-04T18:54:03.504Z,91.70
2023-02-04T18:56:38.175Z,91.70
2023-02-04T18:59:17.033Z,91.60
2023-02-04T19:01:47.010Z,91.60
2023-02-04T19:04:21.019Z,91.70
2023-02-04T19:06:52.182Z,91.70
2023-02-04T19:09:26.373Z,92.10
2023-02-04T19:11:56.353Z,91.80
2023-02-04T19:14:37.443Z,91.70
2023-02-04T19:17:22.154Z,91.70
2023-02-04T19:19:57.897Z,91.40
2023-02-04T19:22:37.591Z,90.80
2023-02-04T19:25:28.060Z,90.90
2023-02-04T19:27:58.332Z,90.80
2023-02-04T19:30:45.442Z,90.10
2023-02-04T19:33:17.917Z,89.30
2023-02-04T19:35:47.979Z,89.00
2023-02-04T19:38:40.608Z,89.80
2023-02-04T19:41:42.236Z,90.10
2023-02-04T19:44:34.603Z,89.90
2023-02-04T19:47:21.044Z,90.10
2023-02-04T19:49:49.474Z,90.10
2023-02-04T19:52:33.508Z,89.90
2023-02-04T19:55:39.094Z,90.00
2023-02-04T19:58:31.228Z,90.30
2023-02-04T20:01:01.357Z,90.00
2023-02-04T20:03:44.232Z,89.80
2023-02-04T20:06:27.594Z,88.50
2023-02-04T20:08:56.857Z,88.80
2023-02-04T20:11:36.314Z,87.70
2023-02-04T20:14:44.982Z,87.00
2023-02-04T20:17:23.427Z,87.30
2023-02-04T20:19:52.018Z,87.30
2023-02-04T20:22:42.857Z,87.70
2023-02-04T20:25:38.592Z,87.40
2023-02-04T20:28:22.612Z,86.80
2023-02-04T20:30:53.590Z,87.10
2023-02-04T20:33:29.560Z,87.20
2023-02-04T20:36:35.841Z,87.10
2023-02-04T20:39:23.285Z,87.70
2023-02-04T20:41:51.502Z,88.40
2023-02-04T20:44:25.500Z,89.00
2023-02-04T20:47:03.031Z,90.10
2023-02-04T20:49:40.469Z,89.80
2023-02-04T20:52:34.398Z,89.90
2023-02-04T20:55:02.711Z,90.00
2023-02-04T20:57:34.118Z,90.10
2023-02-04T21:00:02.831Z,90.10
2023-02-04T21:02:34.602Z,89.70
2023-02-04T21:05:04.832Z,89.00
2023-02-04T21:07:34.151Z,88.00
2023-02-04T21:10:04.175Z,87.70
2023-02-04T21:12:32.464Z,88.60
2023-02-04T21:15:00.638Z,89.00
2023-02-04T21:17:28.983Z,89.20
2023-02-04T21:19:58.567Z,89.20
2023-02-04T21:22:26.900Z,89.30
2023-02-04T21:24:55.134Z,89.60
2023-02-04T21:27:23.946Z,88.70
2023-02-04T21:29:52.170Z,88.90
2023-02-04T21:32:20.843Z,89.10
2023-02-04T21:34:50.251Z,89.50
2023-02-04T21:37:20.296Z,89.70
2023-02-04T21:39:48.509Z,89.70
2023-02-04T21:42:16.884Z,89.70
2023-02-04T21:44:45.181Z,88.80
2023-02-04T21:47:13.521Z,88.40
2023-02-04T21:49:43.071Z,88.80
2023-02-04T21:52:11.523Z,89.00
2023-02-04T21:54:41.187Z,89.30
2023-02-04T21:57:09.465Z,89.30
2023-02-04T21:59:37.742Z,88.80
2023-02-04T22:02:06.170Z,88.40
2023-02-04T22:04:34.756Z,89.10
2023-02-04T22:07:03.389Z,89.10
2023-02-04T22:09:32.066Z,89.30
2023-02-04T22:12:02.451Z,89.70
2023-02-04T22:14:47.943Z,89.70
2023-02-04T22:17:16.193Z,89.70
2023-02-04T22:19:44.428Z,89.50
2023-02-04T22:22:12.621Z,89.80
2023-02-04T22:24:40.960Z,89.90
2023-02-04T22:27:10.609Z,89.80
2023-02-04T22:29:39.063Z,89.80
2023-02-04T22:32:07.351Z,89.70
2023-02-04T22:34:35.650Z,89.80
2023-02-04T22:37:03.929Z,89.10
2023-02-04T22:39:32.830Z,89.20
2023-02-04T22:42:01.194Z,88.70
2023-02-04T22:44:30.845Z,88.90
2023-02-04T22:46:59.208Z,89.10
2023-02-04T22:49:27.433Z,89.50
2023-02-04T22:51:55.724Z,89.40
2023-02-04T22:54:23.918Z,88.70
2023-02-04T22:56:52.131Z,87.60
2023-02-04T22:59:20.344Z,86.50
2023-02-04T23:01:50.048Z,86.60
2023-02-04T23:04:18.313Z,87.20
2023-02-04T23:06:46.640Z,87.60
2023-02-04T23:09:15.338Z,87.20
2023-02-04T23:11:44.253Z,86.80
2023-02-04T23:14:12.550Z,86.40
2023-02-04T23:16:41.212Z,86.30
2023-02-04T23:19:11.081Z,86.20
2023-02-04T23:21:39.449Z,86.90
2023-02-04T23:24:08.248Z,87.40
2023-02-04T23:26:36.883Z,87.70
2023-02-04T23:29:05.205Z,87.60
2023-02-04T23:31:33.446Z,87.20
2023-02-04T23:34:01.803Z,86.20
2023-02-04T23:36:32.979Z,84.50
2023-02-04T23:39:01.392Z,84.30
2023-02-04T23:41:29.649Z,85.50
2023-02-04T23:43:57.909Z,84.10
2023-02-04T23:46:26.192Z,84.00
2023-02-04T23:48:54.433Z,84.00
2023-02-04T23:51:22.668Z,83.90
2023-02-04T23:53:52.458Z,83.80
2023-02-04T23:56:20.736Z,84.00
2023-02-04T23:58:49.077Z,83.80
